Time;durP1;ratioP1;P1;durP2;ratioP2;P2;SDS_P1;SDS_P2;PMS_P1;PMS_P2;Temp;Humidity;BMP_temperature;BMP_pressure;BME280_temperature;BME280_humidity;BME280_pressure;Samples;Min_cycle;Max_cycle;Signal;HPM_P1;HPM_P2
2024/03/26 00:02:15;;;;;;;13.48;3.90;;;15.70;59.20;;;;;;5133571;27;20027;-70
2024/03/26 00:04:42;;;;;;;10.10;3.92;;;15.70;58.90;;;;;;5133622;27;20035;-70
2024/03/26 00:07:07;;;;;;;10.07;3.92;;;15.70;58.90;;;;;;5115104;27;20027;-69
2024/03/26 00:09:33;;;;;;;11.15;3.72;;;15.70;58.80;;;;;;5133870;27;20042;-69
2024/03/26 00:11:59;;;;;;;9.00;3.53;;;15.70;58.70;;;;;;5133631;27;20034;-71
2024/03/26 00:14:25;;;;;;;14.43;4.53;;;15.80;58.70;;;;;;5133436;27;20066;-70
2024/03/26 00:16:50;;;;;;;11.35;3.60;;;15.80;58.70;;;;;;5133661;27;20451;-71
2024/03/26 00:19:16;;;;;;;13.27;4.78;;;15.80;58.30;;;;;;5133535;27;20051;-69
2024/03/26 00:21:42;;;;;;;9.80;3.90;;;15.80;58.40;;;;;;5133715;27;20024;-70
2024/03/26 00:24:07;;;;;;;10.27;4.05;;;15.80;58.30;;;;;;5133415;27;20464;-69
2024/03/26 00:26:35;;;;;;;12.40;3.92;;;15.80;58.60;;;;;;5133506;28;20031;-71
2024/03/26 00:29:01;;;;;;;12.50;4.00;;;15.80;58.50;;;;;;5133327;28;20215;-69
2024/03/26 00:31:31;;;;;;;9.98;3.88;;;15.80;58.60;;;;;;5133519;28;20544;-70
2024/03/26 00:34:00;;;;;;;12.70;3.92;;;15.80;58.70;;;;;;5133482;28;20042;-70
2024/03/26 00:36:26;;;;;;;10.75;3.80;;;15.80;58.40;;;;;;5133604;28;20122;-69
2024/03/26 00:38:52;;;;;;;12.10;3.92;;;15.80;58.50;;;;;;5133552;28;21149;-70
2024/03/26 00:41:18;;;;;;;13.05;4.00;;;15.80;58.30;;;;;;5133363;28;20035;-71
2024/03/26 00:43:44;;;;;;;16.17;3.38;;;15.80;58.20;;;;;;5133157;28;20031;-69
2024/03/26 00:46:09;;;;;;;12.00;3.50;;;15.90;58.10;;;;;;5134373;27;20031;-70
2024/03/26 00:48:35;;;;;;;10.50;3.50;;;15.90;57.80;;;;;;5137583;27;20488;-70
2024/03/26 00:51:01;;;;;;;9.38;3.70;;;15.90;57.60;;;;;;5137105;27;20470;-70
2024/03/26 00:53:27;;;;;;;7.55;3.30;;;15.90;57.30;;;;;;5137241;27;20401;-70
2024/03/26 00:55:53;;;;;;;9.20;3.80;;;15.90;57.50;;;;;;5136799;27;20034;-70
2024/03/26 00:58:18;;;;;;;10.55;3.20;;;15.90;57.40;;;;;;5137184;27;20049;-69
2024/03/26 01:00:44;;;;;;;10.93;3.47;;;15.90;57.20;;;;;;5137210;27;20050;-70
2024/03/26 01:03:10;;;;;;;8.95;3.47;;;16.00;57.20;;;;;;5136769;27;20462;-69
2024/03/26 01:05:35;;;;;;;7.68;3.05;;;16.00;57.10;;;;;;5137160;27;20113;-69
2024/03/26 01:08:01;;;;;;;9.50;3.10;;;16.00;57.10;;;;;;5136881;27;20038;-71
2024/03/26 01:10:27;;;;;;;7.43;3.40;;;16.00;56.60;;;;;;5136836;27;20419;-70
2024/03/26 01:12:53;;;;;;;9.93;3.65;;;15.90;56.60;;;;;;5136953;27;20399;-70
2024/03/26 01:15:18;;;;;;;8.90;3.67;;;16.00;56.20;;;;;;5115895;27;20055;-70
2024/03/26 01:17:45;;;;;;;10.13;3.17;;;16.00;56.60;;;;;;5115967;28;20054;-69
2024/03/26 01:20:11;;;;;;;11.00;3.30;;;15.90;55.90;;;;;;5116230;28;20051;-69
2024/03/26 01:22:38;;;;;;;8.98;3.53;;;15.90;56.10;;;;;;5116162;28;20034;-69
2024/03/26 01:25:05;;;;;;;12.15;3.53;;;15.90;55.60;;;;;;5115917;28;20039;-68
2024/03/26 01:27:31;;;;;;;8.43;3.30;;;16.00;55.80;;;;;;5116201;28;20027;-70
2024/03/26 01:29:57;;;;;;;9.90;3.20;;;16.00;55.40;;;;;;5116049;28;20038;-69
2024/03/26 01:32:22;;;;;;;9.48;3.28;;;15.90;54.80;;;;;;5116305;28;20039;-69
2024/03/26 01:34:51;;;;;;;7.13;3.13;;;15.90;55.00;;;;;;5116164;28;20059;-69
2024/03/26 01:37:17;;;;;;;8.82;3.13;;;15.90;55.30;;;;;;5116011;28;20502;-70
2024/03/26 01:39:43;;;;;;;8.48;3.10;;;15.90;55.80;;;;;;5115588;28;20125;-69
2024/03/26 01:42:09;;;;;;;9.60;3.10;;;15.90;55.80;;;;;;5115915;28;20032;-70
2024/03/26 01:44:34;;;;;;;8.85;3.55;;;15.90;56.00;;;;;;5115855;28;20027;-70
2024/03/26 01:47:00;;;;;;;10.38;3.60;;;15.90;55.80;;;;;;5115838;28;20109;-69
2024/03/26 01:49:27;;;;;;;8.93;3.25;;;15.90;55.90;;;;;;5115758;28;20032;-70
2024/03/26 01:51:53;;;;;;;9.55;3.70;;;15.90;55.90;;;;;;5115909;28;20063;-69
2024/03/26 01:54:19;;;;;;;7.53;3.28;;;15.90;56.00;;;;;;5115890;28;20529;-69
2024/03/26 01:56:46;;;;;;;8.07;3.05;;;15.90;55.90;;;;;;5115537;28;20032;-68
2024/03/26 01:59:12;;;;;;;9.45;3.55;;;15.90;56.10;;;;;;5115969;28;20039;-70
2024/03/26 02:01:38;;;;;;;11.88;4.25;;;15.90;56.30;;;;;;5115550;28;20114;-69
2024/03/26 02:04:04;;;;;;;12.30;3.40;;;15.90;56.60;;;;;;5115496;28;20032;-70
2024/03/26 02:06:30;;;;;;;13.95;3.58;;;15.90;57.10;;;;;;5115521;28;20353;-70
2024/03/26 02:08:57;;;;;;;12.48;3.35;;;15.90;57.60;;;;;;5115283;28;20078;-70
2024/03/26 02:11:24;;;;;;;10.23;3.05;;;15.80;57.90;;;;;;5115241;28;20020;-68
2024/03/26 02:13:50;;;;;;;11.05;3.58;;;15.70;58.10;;;;;;5115439;28;20069;-69
2024/03/26 02:16:15;;;;;;;8.13;3.13;;;15.70;58.50;;;;;;5115401;28;20391;-69
2024/03/26 02:18:41;;;;;;;12.00;3.88;;;15.70;58.70;;;;;;5115082;28;20126;-69
2024/03/26 02:21:07;;;;;;;8.00;3.47;;;15.70;59.00;;;;;;5114974;28;20038;-69
2024/03/26 02:23:33;;;;;;;9.70;3.75;;;15.70;59.20;;;;;;5114958;28;20031;-69
2024/03/26 02:25:58;;;;;;;10.73;3.58;;;15.70;59.30;;;;;;5115089;28;20028;-69
2024/03/26 02:28:24;;;;;;;9.00;4.00;;;15.70;59.40;;;;;;5114930;28;20395;-70
2024/03/26 02:30:50;;;;;;;9.90;4.45;;;15.60;60.20;;;;;;5114918;28;20106;-69
2024/03/26 02:33:15;;;;;;;9.38;4.00;;;15.50;60.70;;;;;;5115035;28;20032;-70
2024/03/26 02:35:41;;;;;;;14.73;4.82;;;15.50;60.90;;;;;;5114840;28;20028;-69
2024/03/26 02:38:07;;;;;;;12.20;4.50;;;15.50;61.30;;;;;;5115090;28;20213;-69
2024/03/26 02:40:33;;;;;;;13.23;4.78;;;15.50;61.50;;;;;;5114797;28;20085;-69
2024/03/26 02:43:02;;;;;;;10.38;4.68;;;15.50;61.60;;;;;;5114612;28;20046;-69
2024/03/26 02:45:28;;;;;;;15.27;4.43;;;15.50;61.90;;;;;;5096401;28;20035;-69
2024/03/26 02:47:54;;;;;;;8.88;4.07;;;15.50;62.20;;;;;;5114604;28;20036;-70
2024/03/26 02:50:20;;;;;;;12.45;4.57;;;15.40;62.10;;;;;;5114652;28;20103;-70
2024/03/26 02:52:45;;;;;;;11.65;4.35;;;15.40;62.20;;;;;;5114526;28;20483;-70
2024/03/26 02:55:11;;;;;;;13.05;4.68;;;15.40;62.40;;;;;;5114381;28;20031;-69
2024/03/26 02:57:37;;;;;;;11.45;4.18;;;15.50;62.50;;;;;;5114652;28;20426;-69
2024/03/26 03:00:05;;;;;;;12.63;4.63;;;15.50;62.50;;;;;;5114344;28;20086;-70
2024/03/26 03:02:34;;;;;;;14.95;4.38;;;15.50;62.70;;;;;;5114522;28;20398;-70
2024/03/26 03:05:00;;;;;;;12.02;4.80;;;15.40;62.90;;;;;;5114155;28;20033;-70
2024/03/26 03:07:25;;;;;;;14.15;4.70;;;15.40;63.20;;;;;;5114214;28;20035;-70
2024/03/26 03:09:51;;;;;;;10.63;5.10;;;15.50;63.50;;;;;;5113338;28;20027;-70
2024/03/26 03:12:17;;;;;;;17.10;5.03;;;15.50;63.80;;;;;;5114053;28;20371;-69
2024/03/26 03:14:42;;;;;;;13.73;4.22;;;15.50;63.80;;;;;;5113965;28;20040;-69
2024/03/26 03:17:08;;;;;;;12.63;4.88;;;15.50;63.70;;;;;;5114128;28;20035;-69
2024/03/26 03:19:34;;;;;;;13.20;4.68;;;15.50;63.80;;;;;;5113549;28;20075;-70
2024/03/26 03:22:00;;;;;;;10.27;4.78;;;15.50;63.90;;;;;;5113771;28;20032;-69
2024/03/26 03:24:25;;;;;;;10.68;4.53;;;15.50;63.90;;;;;;5113844;28;20133;-69
2024/03/26 03:26:51;;;;;;;10.98;4.07;;;15.50;63.70;;;;;;5113700;28;20105;-69
2024/03/26 03:29:17;;;;;;;9.13;3.58;;;15.50;63.50;;;;;;5113981;28;20031;-69
2024/03/26 03:31:43;;;;;;;7.88;3.33;;;15.50;63.20;;;;;;5113771;28;20032;-71
2024/03/26 03:34:09;;;;;;;7.13;3.20;;;15.50;62.90;;;;;;5113577;28;20035;-70
2024/03/26 03:36:34;;;;;;;8.80;3.17;;;15.50;62.50;;;;;;5113481;28;20059;-71
2024/03/26 03:39:00;;;;;;;9.48;3.10;;;15.50;62.10;;;;;;5113434;28;20039;-70
2024/03/26 03:41:26;;;;;;;9.20;3.05;;;15.50;61.80;;;;;;5113994;28;20032;-70
2024/03/26 03:43:51;;;;;;;7.20;3.00;;;15.50;61.70;;;;;;5095363;28;20032;-69
2024/03/26 03:46:17;;;;;;;9.65;3.50;;;15.50;61.90;;;;;;5113484;28;20028;-70
2024/03/26 03:48:43;;;;;;;7.53;2.70;;;15.40;61.30;;;;;;5113582;28;20430;-70
2024/03/26 03:51:08;;;;;;;10.20;3.10;;;15.40;61.30;;;;;;5113124;28;20108;-69
2024/03/26 03:53:34;;;;;;;8.23;2.85;;;15.40;60.90;;;;;;5113281;28;20035;-70
2024/03/26 03:56:00;;;;;;;8.93;3.10;;;15.40;60.90;;;;;;5113345;28;20046;-68
2024/03/26 03:58:25;;;;;;;8.20;3.55;;;15.40;60.80;;;;;;5113221;28;20036;-68
2024/03/26 04:00:51;;;;;;;8.98;2.80;;;15.40;60.90;;;;;;5113228;28;20498;-69
2024/03/26 04:03:17;;;;;;;12.13;3.47;;;15.30;60.60;;;;;;5113409;28;20414;-69
2024/03/26 04:05:42;;;;;;;6.35;2.55;;;15.30;60.60;;;;;;5113149;28;20085;-70
2024/03/26 04:08:11;;;;;;;10.05;2.88;;;15.30;60.70;;;;;;5113152;28;20439;-69
2024/03/26 04:10:40;;;;;;;8.63;3.33;;;15.30;61.30;;;;;;5113266;28;20114;-70
2024/03/26 04:13:06;;;;;;;8.55;2.78;;;15.30;60.60;;;;;;5113089;28;20054;-69
2024/03/26 04:15:31;;;;;;;9.77;3.00;;;15.30;60.50;;;;;;5113069;28;20531;-70
2024/03/26 04:17:57;;;;;;;9.13;3.20;;;15.40;60.50;;;;;;5114991;22;20516;-70
2024/03/26 04:20:23;;;;;;;7.72;3.13;;;15.30;60.10;;;;;;5092603;28;20098;-69
2024/03/26 04:22:49;;;;;;;8.55;2.92;;;15.30;60.10;;;;;;5092510;28;20058;-68
2024/03/26 04:25:15;;;;;;;7.72;2.63;;;15.30;60.00;;;;;;5092402;28;20101;-69
2024/03/26 04:27:41;;;;;;;6.28;2.50;;;15.40;60.00;;;;;;5092323;28;20039;-69
2024/03/26 04:30:08;;;;;;;8.27;3.15;;;15.30;59.60;;;;;;5092660;28;20035;-69
2024/03/26 04:32:35;;;;;;;5.63;2.25;;;15.30;59.50;;;;;;5091930;28;20487;-69
2024/03/26 04:35:02;;;;;;;7.10;2.60;;;15.30;59.40;;;;;;5092441;28;20395;-69
2024/03/26 04:37:27;;;;;;;8.50;4.10;;;15.30;59.40;;;;;;5091921;28;20158;-70
2024/03/26 04:39:53;;;;;;;8.43;3.47;;;15.30;59.10;;;;;;5092402;28;20123;-69
2024/03/26 04:42:20;;;;;;;10.50;2.95;;;15.30;59.10;;;;;;5091977;28;20024;-70
2024/03/26 04:44:46;;;;;;;9.15;2.85;;;15.30;58.90;;;;;;5092353;28;20487;-69
2024/03/26 04:47:12;;;;;;;8.75;3.03;;;15.30;58.80;;;;;;5092352;28;20064;-68
2024/03/26 04:49:38;;;;;;;9.35;2.85;;;15.40;58.60;;;;;;5092804;28;20437;-70
2024/03/26 04:52:03;;;;;;;7.72;2.80;;;15.40;58.70;;;;;;5074229;28;20036;-69
2024/03/26 04:54:29;;;;;;;10.77;2.85;;;15.40;58.60;;;;;;5092286;28;20107;-70
2024/03/26 04:56:55;;;;;;;9.07;2.80;;;15.50;58.30;;;;;;5091750;28;20048;-69
2024/03/26 04:59:21;;;;;;;7.82;2.63;;;15.50;58.30;;;;;;5092356;28;20071;-69
2024/03/26 05:01:46;;;;;;;9.30;2.58;;;15.50;58.20;;;;;;5091889;28;20024;-69
2024/03/26 05:04:12;;;;;;;7.10;2.65;;;15.50;57.90;;;;;;5092242;28;20533;-70
2024/03/26 05:06:38;;;;;;;9.13;3.08;;;15.60;58.10;;;;;;5091928;28;20028;-70
2024/03/26 05:09:04;;;;;;;9.07;3.10;;;15.60;58.10;;;;;;5074082;28;20381;-69
2024/03/26 05:11:30;;;;;;;10.82;2.78;;;15.60;58.20;;;;;;5092118;28;20487;-70
2024/03/26 05:13:56;;;;;;;8.88;2.90;;;15.60;57.90;;;;;;5092328;28;20123;-70
2024/03/26 05:16:22;;;;;;;8.27;3.13;;;15.70;57.90;;;;;;5092342;28;20059;-69
2024/03/26 05:18:47;;;;;;;11.65;3.20;;;15.70;58.00;;;;;;5091390;28;20472;-69
2024/03/26 05:21:15;;;;;;;8.80;2.72;;;15.70;57.70;;;;;;5092261;28;20040;-70
2024/03/26 05:23:42;;;;;;;11.23;2.85;;;15.80;57.90;;;;;;5091843;28;20055;-70
2024/03/26 05:26:08;;;;;;;10.82;2.95;;;15.80;57.70;;;;;;5091659;28;20166;-70
2024/03/26 05:28:34;;;;;;;7.75;2.50;;;16.00;57.40;;;;;;5092185;28;20033;-69
2024/03/26 05:31:19;;;;;;;13.98;4.00;;;16.10;57.20;;;;;;5091642;28;20038;-69
2024/03/26 05:33:46;;;;;;;13.57;3.33;;;16.20;56.80;;;;;;5095749;28;20032;-69
2024/03/26 05:36:13;;;;;;;14.23;3.33;;;16.30;56.70;;;;;;5094998;28;20016;-70
2024/03/26 05:38:39;;;;;;;11.15;3.05;;;16.30;56.60;;;;;;5095679;28;20089;-69
2024/03/26 05:41:05;;;;;;;9.90;2.95;;;16.40;55.90;;;;;;5095401;28;20044;-69
2024/03/26 05:43:31;;;;;;;11.45;2.80;;;16.50;55.80;;;;;;5095270;28;20036;-69
2024/03/26 05:45:56;;;;;;;9.60;2.80;;;16.50;55.60;;;;;;5095511;28;20054;-69
2024/03/26 05:48:22;;;;;;;9.38;2.50;;;16.60;55.50;;;;;;5095325;28;20496;-70
2024/03/26 05:50:48;;;;;;;16.63;3.20;;;16.60;55.50;;;;;;5095679;28;20032;-70
2024/03/26 05:53:13;;;;;;;8.43;2.80;;;16.60;55.50;;;;;;5095200;28;20028;-70
2024/03/26 05:55:39;;;;;;;11.25;2.72;;;16.60;55.50;;;;;;5094450;28;20436;-69
2024/03/26 05:58:05;;;;;;;10.48;3.00;;;16.70;55.20;;;;;;5095354;28;20111;-68
2024/03/26 06:00:31;;;;;;;10.25;2.65;;;16.70;55.30;;;;;;5094518;28;20119;-69
2024/03/26 06:02:57;;;;;;;11.40;2.83;;;16.70;55.00;;;;;;5095140;28;20032;-70
2024/03/26 06:05:23;;;;;;;9.90;2.50;;;16.70;54.80;;;;;;5095244;28;20530;-70
2024/03/26 06:07:48;;;;;;;10.68;2.75;;;16.70;54.40;;;;;;5094563;28;20032;-70
2024/03/26 06:10:14;;;;;;;10.70;4.07;;;16.70;54.50;;;;;;5094223;28;20393;-70
2024/03/26 06:12:41;;;;;;;11.25;2.92;;;16.70;54.50;;;;;;5095123;28;20032;-70
2024/03/26 06:15:10;;;;;;;14.30;3.30;;;16.70;54.40;;;;;;5094704;28;20052;-70
2024/03/26 06:17:36;;;;;;;12.65;3.13;;;16.70;55.20;;;;;;5076393;28;20067;-70
2024/03/26 06:20:04;;;;;;;13.23;2.97;;;16.70;54.60;;;;;;5094564;28;20079;-70
2024/03/26 06:22:30;;;;;;;12.88;2.58;;;16.70;54.60;;;;;;5094606;28;20047;-68
2024/03/26 06:24:56;;;;;;;14.57;3.65;;;16.70;54.90;;;;;;5076794;28;20036;-70
2024/03/26 06:27:21;;;;;;;13.13;2.53;;;16.70;55.40;;;;;;5094614;28;20040;-70
2024/03/26 06:29:47;;;;;;;17.15;4.13;;;16.70;55.20;;;;;;5094608;28;20487;-69
2024/03/26 06:32:13;;;;;;;9.63;2.95;;;16.70;55.40;;;;;;5094208;28;20430;-70
2024/03/26 06:34:39;;;;;;;14.57;2.95;;;16.70;55.50;;;;;;5076190;28;20391;-70
2024/03/26 06:37:04;;;;;;;11.20;2.35;;;16.70;55.70;;;;;;5093147;28;20035;-70
2024/03/26 06:39:30;;;;;;;13.15;3.42;;;16.70;56.00;;;;;;5093725;28;20344;-70
2024/03/26 06:41:56;;;;;;;11.50;3.10;;;16.70;56.30;;;;;;5076253;28;20122;-69
2024/03/26 06:44:22;;;;;;;12.98;3.45;;;16.70;56.60;;;;;;5093316;28;20040;-70
2024/03/26 06:46:48;;;;;;;36.58;4.80;;;16.70;56.80;;;;;;5093602;28;20032;-70
2024/03/26 06:49:15;;;;;;;23.80;4.35;;;16.80;58.70;;;;;;5094290;28;20104;-70
2024/03/26 06:51:41;;;;;;;21.17;4.05;;;16.90;60.40;;;;;;5093596;28;20036;-70
2024/03/26 06:54:07;;;;;;;25.50;4.50;;;17.10;62.00;;;;;;5093889;28;20491;-70
2024/03/26 06:56:33;;;;;;;23.75;4.25;;;17.30;62.80;;;;;;5092919;28;20055;-70
2024/03/26 06:59:00;;;;;;;21.20;4.88;;;17.40;63.20;;;;;;5094031;28;20032;-70
2024/03/26 07:01:25;;;;;;;23.27;4.47;;;17.40;63.20;;;;;;5093796;28;20036;-69
2024/03/26 07:03:51;;;;;;;19.30;4.65;;;17.40;63.90;;;;;;5093263;28;20498;-71
2024/03/26 07:06:17;;;;;;;31.10;5.22;;;17.50;64.30;;;;;;5093844;28;20032;-70
2024/03/26 07:08:44;;;;;;;51.08;7.15;;;17.40;64.40;;;;;;5093696;28;20398;-73
2024/03/26 07:11:10;;;;;;;31.15;5.68;;;17.40;64.90;;;;;;5093051;28;20036;-70
2024/03/26 07:13:36;;;;;;;83.75;10.93;;;17.40;65.50;;;;;;5093456;28;20383;-69
2024/03/26 07:16:04;;;;;;;56.28;8.30;;;17.40;66.00;;;;;;5093529;28;20085;-71
2024/03/26 07:18:30;;;;;;;36.17;6.13;;;17.40;66.30;;;;;;5093672;28;20087;-70
2024/03/26 07:20:57;;;;;;;29.80;5.28;;;17.40;66.90;;;;;;5093370;28;20113;-70
2024/03/26 07:23:24;;;;;;;22.20;5.32;;;17.30;68.40;;;;;;5093124;28;20047;-71
2024/03/26 07:25:49;;;;;;;25.13;6.40;;;17.30;68.40;;;;;;5093441;28;20046;-71
2024/03/26 07:28:15;;;;;;;19.10;4.18;;;17.20;69.70;;;;;;5093318;28;20036;-71
2024/03/26 07:30:41;;;;;;;29.08;4.78;;;17.10;70.50;;;;;;5093455;28;20063;-71
2024/03/26 07:33:08;;;;;;;19.45;5.18;;;17.00;71.70;;;;;;5093353;28;20028;-71
2024/03/26 07:35:34;;;;;;;20.75;4.55;;;17.00;72.20;;;;;;5092353;28;20041;-70
2024/03/26 07:38:00;;;;;;;25.27;5.03;;;16.90;73.60;;;;;;5092934;28;20039;-70
2024/03/26 07:40:26;;;;;;;22.13;4.85;;;16.80;74.60;;;;;;5093082;28;20040;-69
2024/03/26 07:42:52;;;;;;;18.90;4.68;;;16.70;75.60;;;;;;5092691;28;20085;-71
2024/03/26 07:45:18;;;;;;;20.42;6.22;;;16.60;76.50;;;;;;5092737;28;20032;-71
2024/03/26 07:47:43;;;;;;;23.92;5.70;;;16.50;76.80;;;;;;5092468;28;20032;-70
2024/03/26 07:50:09;;;;;;;17.33;4.75;;;16.50;77.80;;;;;;5092166;28;20038;-70
2024/03/26 07:52:35;;;;;;;21.95;4.82;;;16.30;78.70;;;;;;5092690;28;20047;-70
2024/03/26 07:55:01;;;;;;;19.90;5.20;;;16.30;78.80;;;;;;5092869;28;20511;-71
2024/03/26 07:57:27;;;;;;;20.15;4.97;;;16.20;79.30;;;;;;5092751;28;20078;-70
2024/03/26 07:59:52;;;;;;;16.60;4.93;;;16.10;80.00;;;;;;5092842;28;20444;-70
2024/03/26 08:02:18;;;;;;;24.75;5.25;;;16.10;80.00;;;;;;5092800;28;20074;-70
2024/03/26 08:04:46;;;;;;;18.27;5.18;;;16.10;80.80;;;;;;5092167;28;20103;-69
2024/03/26 08:07:11;;;;;;;19.80;5.60;;;16.10;80.90;;;;;;5092059;28;20058;-70
2024/03/26 08:09:38;;;;;;;24.67;5.30;;;16.00;81.30;;;;;;5092838;28;20391;-72
2024/03/26 08:12:04;;;;;;;21.13;5.10;;;16.00;81.40;;;;;;5092718;28;20028;-69
2024/03/26 08:14:30;;;;;;;19.50;5.35;;;16.00;81.10;;;;;;5092349;28;20127;-70
2024/03/26 08:16:55;;;;;;;17.17;5.32;;;16.10;81.90;;;;;;5092534;28;20550;-70
2024/03/26 08:19:21;;;;;;;26.20;5.32;;;16.10;81.70;;;;;;5092352;28;20040;-69
2024/03/26 08:21:47;;;;;;;20.17;5.50;;;16.10;81.50;;;;;;5092114;28;20036;-70
2024/03/26 08:24:14;;;;;;;25.00;6.15;;;16.20;82.00;;;;;;5091883;28;20113;-71
2024/03/26 08:26:39;;;;;;;48.63;6.97;;;16.10;81.80;;;;;;5091967;28;20028;-71
2024/03/26 08:29:05;;;;;;;25.52;6.18;;;16.10;82.20;;;;;;5092415;28;20028;-71
2024/03/26 08:31:31;;;;;;;23.55;5.82;;;16.10;82.50;;;;;;5092343;28;20086;-70
2024/03/26 08:33:56;;;;;;;32.50;7.47;;;16.10;82.70;;;;;;5092436;28;20032;-71
2024/03/26 08:36:23;;;;;;;44.15;8.27;;;16.10;82.90;;;;;;5092450;28;20036;-71
2024/03/26 08:38:51;;;;;;;26.13;6.32;;;16.00;83.50;;;;;;5091066;28;20036;-70
2024/03/26 08:41:16;;;;;;;22.45;5.00;;;16.00;83.70;;;;;;5092193;28;20038;-70
2024/03/26 08:43:42;;;;;;;23.08;4.68;;;15.90;84.10;;;;;;5092182;28;20119;-70
2024/03/26 08:46:08;;;;;;;15.02;4.63;;;15.80;84.10;;;;;;5092210;28;20036;-71
2024/03/26 08:48:34;;;;;;;27.45;5.47;;;15.80;84.30;;;;;;5092022;28;20029;-70
2024/03/26 08:51:00;;;;;;;25.13;5.13;;;15.70;84.40;;;;;;5092193;28;20093;-71
2024/03/26 08:53:26;;;;;;;32.95;6.07;;;15.60;84.50;;;;;;5091909;28;20033;-71
2024/03/26 08:55:52;;;;;;;19.17;5.10;;;15.60;84.90;;;;;;5092234;28;20028;-70
2024/03/26 08:58:17;;;;;;;21.48;5.72;;;15.60;85.50;;;;;;5091632;28;20024;-70
2024/03/26 09:00:43;;;;;;;17.52;5.38;;;15.50;85.70;;;;;;5092105;28;20348;-71
2024/03/26 09:03:09;;;;;;;18.42;5.40;;;15.50;86.00;;;;;;5091692;28;20024;-71
2024/03/26 09:05:35;;;;;;;19.67;5.40;;;15.50;86.30;;;;;;5091674;28;20047;-70
2024/03/26 09:08:01;;;;;;;18.08;4.50;;;15.40;87.20;;;;;;5076316;28;20036;-71
2024/03/26 09:10:26;;;;;;;18.48;5.78;;;15.40;86.80;;;;;;5095366;28;20111;-71
2024/03/26 09:12:52;;;;;;;15.88;4.90;;;15.40;87.10;;;;;;5096229;28;20032;-70
2024/03/26 09:15:18;;;;;;;17.25;5.82;;;15.30;87.60;;;;;;5095822;28;20032;-69
2024/03/26 09:17:44;;;;;;;15.65;4.95;;;15.30;87.20;;;;;;5095892;28;20024;-70
2024/03/26 09:20:10;;;;;;;21.80;6.07;;;15.30;88.10;;;;;;5096039;28;20058;-70
2024/03/26 09:22:36;;;;;;;23.13;6.47;;;15.30;87.40;;;;;;5095705;28;20036;-70
2024/03/26 09:25:03;;;;;;;21.20;5.10;;;15.30;87.30;;;;;;5095679;28;20028;-70
2024/03/26 09:27:28;;;;;;;15.48;4.85;;;15.30;87.30;;;;;;5096205;28;20472;-71
2024/03/26 09:29:56;;;;;;;17.55;4.97;;;15.40;87.10;;;;;;5077151;28;20372;-71
2024/03/26 09:32:22;;;;;;;20.13;5.05;;;15.40;87.10;;;;;;5095872;28;20158;-70
2024/03/26 09:34:48;;;;;;;17.48;4.72;;;15.40;87.10;;;;;;5095862;28;20526;-70
2024/03/26 09:37:14;;;;;;;18.88;5.63;;;15.40;86.90;;;;;;5095981;28;20036;-70
2024/03/26 09:39:39;;;;;;;19.00;5.30;;;15.30;86.80;;;;;;5095657;28;20059;-71
2024/03/26 09:42:08;;;;;;;19.10;5.85;;;15.30;87.10;;;;;;5095717;28;20036;-70
2024/03/26 09:44:36;;;;;;;14.95;5.30;;;15.30;87.10;;;;;;5095686;28;20040;-71
2024/03/26 09:47:02;;;;;;;19.83;6.30;;;15.20;87.60;;;;;;5095267;28;20430;-71
2024/03/26 09:49:28;;;;;;;20.50;6.15;;;15.10;87.60;;;;;;5095503;28;20107;-70
2024/03/26 09:51:55;;;;;;;17.45;5.88;;;15.10;87.90;;;;;;5095530;28;20028;-69
2024/03/26 09:54:21;;;;;;;22.08;6.05;;;15.10;88.20;;;;;;5095396;28;20552;-70
2024/03/26 09:56:47;;;;;;;21.15;5.93;;;15.10;88.20;;;;;;5095438;28;20033;-71
2024/03/26 09:59:13;;;;;;;21.33;5.93;;;15.20;88.10;;;;;;5095097;28;20044;-71
2024/03/26 10:01:40;;;;;;;18.02;5.30;;;15.20;88.20;;;;;;5095179;28;20040;-70
2024/03/26 10:04:06;;;;;;;19.90;6.30;;;15.30;88.40;;;;;;5094714;28;20452;-69
2024/03/26 10:06:32;;;;;;;18.15;5.38;;;15.30;88.10;;;;;;5095177;28;20147;-69
2024/03/26 10:08:59;;;;;;;18.77;6.20;;;15.40;88.00;;;;;;5094853;28;20456;-71
2024/03/26 10:11:25;;;;;;;19.23;5.20;;;15.40;88.10;;;;;;5094942;28;20036;-70
2024/03/26 10:13:54;;;;;;;13.18;5.00;;;15.40;88.10;;;;;;5094932;28;20039;-69
2024/03/26 10:16:20;;;;;;;14.55;4.95;;;15.40;88.10;;;;;;5094848;28;20480;-70
2024/03/26 10:18:49;;;;;;;16.48;4.95;;;15.50;88.10;;;;;;5094371;28;20067;-70
2024/03/26 10:21:15;;;;;;;19.17;5.47;;;15.50;88.20;;;;;;5094582;28;20152;-68
2024/03/26 10:23:42;;;;;;;16.33;5.25;;;15.50;88.20;;;;;;5094645;28;20039;-71
2024/03/26 10:26:07;;;;;;;16.40;5.60;;;15.50;88.30;;;;;;5094841;28;20388;-70
2024/03/26 10:28:33;;;;;;;12.38;4.88;;;15.60;88.20;;;;;;5094859;28;20085;-70
2024/03/26 10:30:59;;;;;;;12.95;4.88;;;15.60;88.20;;;;;;5094454;28;20407;-70
2024/03/26 10:33:25;;;;;;;14.27;5.72;;;15.60;88.20;;;;;;5094719;28;20074;-70
2024/03/26 10:35:54;;;;;;;20.38;5.30;;;15.60;88.30;;;;;;5094436;28;20457;-72
2024/03/26 10:38:21;;;;;;;22.75;6.10;;;15.60;88.50;;;;;;5094269;28;20024;-70
2024/03/26 10:41:26;;;;;;;15.88;5.35;;;15.50;88.90;;;;;;5094329;28;20044;-70
2024/03/26 10:43:52;;;;;;;31.63;7.07;;;15.50;88.70;;;;;;5094292;28;20040;-70
2024/03/26 10:46:20;;;;;;;23.00;6.82;;;15.50;88.80;;;;;;5076145;28;20036;-71
2024/03/26 10:48:46;;;;;;;24.63;5.38;;;15.60;89.00;;;;;;5094108;28;20028;-70
2024/03/26 10:51:13;;;;;;;42.05;6.78;;;15.60;89.20;;;;;;5094268;28;20036;-70
2024/03/26 10:53:39;;;;;;;15.02;4.72;;;15.70;89.40;;;;;;5092780;28;20536;-70
2024/03/26 10:56:10;;;;;;;19.30;5.40;;;15.70;89.50;;;;;;5094152;28;20115;-70
2024/03/26 10:58:36;;;;;;;15.07;5.05;;;15.70;89.40;;;;;;5093936;28;20040;-70
2024/03/26 11:01:04;;;;;;;17.40;4.80;;;15.80;89.50;;;;;;5094190;28;20058;-70
2024/03/26 11:03:32;;;;;;;20.60;5.30;;;15.80;89.40;;;;;;5094128;28;20031;-70
2024/03/26 11:05:58;;;;;;;18.98;4.95;;;15.80;89.70;;;;;;5093966;28;20036;-70
2024/03/26 11:08:24;;;;;;;16.95;5.13;;;15.90;89.80;;;;;;5094008;28;20106;-70
2024/03/26 11:11:00;;;;;;;18.65;4.13;;;16.00;89.80;;;;;;5093819;28;20055;-70
2024/03/26 11:13:32;;;;;;;14.07;4.72;;;16.10;90.20;;;;;;5094303;28;20053;-70
2024/03/26 11:15:58;;;;;;;12.63;3.88;;;16.20;90.10;;;;;;5099155;28;20036;-70
2024/03/26 11:18:32;;;;;;;16.08;5.55;;;16.40;90.40;;;;;;5101445;28;20040;-70
2024/03/26 11:21:06;;;;;;;18.88;6.53;;;16.50;90.30;;;;;;5115164;28;20432;-70
2024/03/26 11:23:43;;;;;;;13.80;4.82;;;16.60;90.00;;;;;;5101336;28;20058;-71
2024/03/26 11:26:23;;;;;;;20.15;4.15;;;16.70;90.20;;;;;;5095417;28;20043;-71
2024/03/26 11:28:49;;;;;;;15.32;3.83;;;16.70;90.00;;;;;;5094401;28;20035;-70
2024/03/26 11:31:17;;;;;;;18.90;3.90;;;16.80;90.00;;;;;;5093326;28;20107;-71
2024/03/26 11:33:55;;;;;;;12.93;3.90;;;16.90;90.20;;;;;;5093933;28;20071;-71
2024/03/26 11:36:20;;;;;;;14.25;4.00;;;16.80;90.10;;;;;;5094089;28;20028;-70
2024/03/26 11:38:48;;;;;;;17.75;3.53;;;16.80;90.20;;;;;;5093970;28;20119;-70
2024/03/26 11:41:17;;;;;;;13.00;3.40;;;16.80;90.20;;;;;;5093496;28;20055;-71
2024/03/26 11:43:43;;;;;;;12.05;3.72;;;16.80;90.50;;;;;;5093589;28;20054;-70
2024/03/26 11:46:09;;;;;;;14.23;3.75;;;16.80;90.40;;;;;;5093787;28;20552;-70
2024/03/26 11:48:35;;;;;;;18.52;4.25;;;16.80;90.50;;;;;;5093741;28;20032;-71
2024/03/26 11:51:03;;;;;;;11.75;3.70;;;16.80;90.60;;;;;;5093726;28;20115;-70
2024/03/26 11:53:29;;;;;;;22.40;3.72;;;16.80;90.60;;;;;;5093848;28;20035;-71
2024/03/26 11:55:55;;;;;;;10.10;3.47;;;16.90;90.60;;;;;;5093512;28;20024;-72
2024/03/26 11:58:26;;;;;;;7.75;2.90;;;17.00;90.60;;;;;;5093710;28;20476;-71
2024/03/26 12:00:52;;;;;;;10.07;2.78;;;17.10;90.50;;;;;;5093958;28;20079;-71
2024/03/26 12:03:18;;;;;;;11.00;2.72;;;17.20;90.50;;;;;;5076259;28;20081;-72
2024/03/26 12:05:44;;;;;;;8.10;2.95;;;17.20;90.40;;;;;;5093700;28;20135;-70
2024/03/26 12:08:10;;;;;;;8.00;3.13;;;17.20;90.40;;;;;;5093605;28;20085;-71
2024/03/26 12:10:36;;;;;;;10.70;3.35;;;17.30;90.40;;;;;;5092669;28;20047;-71
2024/03/26 12:13:03;;;;;;;7.13;2.60;;;17.30;90.50;;;;;;5092645;28;20050;-70
2024/03/26 12:15:30;;;;;;;12.25;3.05;;;17.40;90.50;;;;;;5093116;28;20479;-72
2024/03/26 12:17:56;;;;;;;11.07;2.70;;;17.60;90.30;;;;;;5092772;28;20044;-71
2024/03/26 12:20:22;;;;;;;14.00;3.08;;;17.80;90.10;;;;;;5093166;28;20044;-71
2024/03/26 12:22:48;;;;;;;7.30;2.47;;;17.80;90.00;;;;;;5092862;28;20028;-70
2024/03/26 12:25:13;;;;;;;11.35;2.83;;;17.80;90.00;;;;;;5092460;28;20105;-70
2024/03/26 12:27:42;;;;;;;11.13;2.45;;;17.80;90.10;;;;;;5092673;28;20036;-70
2024/03/26 12:30:12;;;;;;;12.07;2.95;;;17.70;90.10;;;;;;5092942;28;20032;-70
2024/03/26 12:32:37;;;;;;;13.57;6.38;;;17.60;90.20;;;;;;5093080;28;20411;-73
2024/03/26 12:35:03;;;;;;;13.65;3.53;;;17.50;90.30;;;;;;5092641;28;20028;-71
2024/03/26 12:37:30;;;;;;;13.63;3.28;;;17.40;90.40;;;;;;5092961;28;20024;-71